Time;durP1;ratioP1;P1;durP2;ratioP2;P2;SDS_P1;SDS_P2;PMS_P1;PMS_P2;Temp;Humidity;BMP_temperature;BMP_pressure;BME280_temperature;BME280_humidity;BME280_pressure;Samples;Min_cycle;Max_cycle;Signal;HPM_P1;HPM_P2
2022/05/13 00:03:16;;;;;;;8.20;3.20;;;;;;;;;;6204736;28;20237;-67
2022/05/13 00:06:36;;;;;;;8.33;2.90;;;;;;;;;;6206035;28;20226;-68
2022/05/13 00:10:00;;;;;;;8.53;3.27;;;;;;;;;;6204871;28;20241;-67
2022/05/13 00:13:23;;;;;;;8.63;3.17;;;;;;;;;;6204959;28;20229;-66
2022/05/13 00:16:43;;;;;;;6.73;2.90;;;;;;;;;;6205361;28;21681;-67
2022/05/13 00:20:05;;;;;;;5.37;2.37;;;;;;;;;;6203386;28;20233;-66
2022/05/13 00:23:25;;;;;;;8.70;3.03;;;;;;;;;;6201806;28;20603;-67
2022/05/13 00:26:46;;;;;;;3.67;2.47;;;;;;;;;;6194601;28;20626;-67
2022/05/13 00:30:09;;;;;;;10.60;3.70;;;;;;;;;;6199948;28;20248;-67
2022/05/13 00:33:30;;;;;;;9.63;3.67;;;;;;;;;;6197031;28;20233;-67
2022/05/13 00:36:51;;;;;;;6.83;3.30;;;;;;;;;;6198965;28;20232;-66
2022/05/13 00:40:12;;;;;;;7.40;2.60;;;;;;;;;;6204359;28;20599;-66
2022/05/13 00:43:53;;;;;;;7.60;2.93;;;;;;;;;;6207285;28;20241;-67
2022/05/13 00:47:15;;;;;;;10.90;3.97;;;;;;;;;;6204197;28;20768;-67
2022/05/13 00:50:38;;;;;;;5.83;2.97;;;;;;;;;;6205820;28;20225;-67
2022/05/13 00:53:59;;;;;;;4.67;2.77;;;;;;;;;;6206134;28;20261;-67
2022/05/13 00:57:21;;;;;;;4.67;2.93;;;;;;;;;;6200645;28;20237;-66
2022/05/13 01:00:41;;;;;;;6.37;3.30;;;;;;;;;;6203675;28;20297;-67
2022/05/13 01:04:05;;;;;;;12.23;3.60;;;;;;;;;;6200595;28;20714;-65
2022/05/13 01:07:27;;;;;;;5.50;2.83;;;;;;;;;;6207153;28;20249;-67
2022/05/13 01:10:49;;;;;;;7.27;3.07;;;;;;;;;;6204906;28;20241;-68
2022/05/13 01:14:24;;;;;;;4.07;2.70;;;;;;;;;;6204020;28;20328;-67
2022/05/13 01:21:26;;;;;;;6.03;3.33;;;;;;;;;;6209294;28;20532;-66
2022/05/13 01:24:48;;;;;;;5.37;2.40;;;;;;;;;;6207636;28;20233;-66
2022/05/13 01:28:11;;;;;;;5.20;2.73;;;;;;;;;;6207161;28;20320;-66
2022/05/13 01:31:33;;;;;;;5.53;3.03;;;;;;;;;;6207647;28;20591;-68
2022/05/13 01:34:53;;;;;;;6.40;3.27;;;;;;;;;;6208789;28;20726;-67
2022/05/13 01:38:14;;;;;;;10.43;4.77;;;;;;;;;;6203281;28;20325;-66
2022/05/13 01:41:36;;;;;;;11.20;3.53;;;;;;;;;;6208579;28;20694;-67
2022/05/13 01:44:57;;;;;;;7.17;4.07;;;;;;;;;;6204273;28;20221;-67
2022/05/13 01:48:17;;;;;;;6.43;3.83;;;;;;;;;;6201500;28;20241;-67
2022/05/13 01:51:38;;;;;;;6.70;3.00;;;;;;;;;;6202571;28;20852;-67
2022/05/13 01:54:59;;;;;;;8.63;3.00;;;;;;;;;;6211555;28;20240;-67
2022/05/13 01:58:22;;;;;;;8.27;2.87;;;;;;;;;;6209801;28;20241;-67
2022/05/13 02:01:42;;;;;;;8.07;3.60;;;;;;;;;;6204255;28;20238;-66
2022/05/13 02:05:02;;;;;;;9.53;3.60;;;;;;;;;;6204896;28;20237;-66
2022/05/13 02:08:23;;;;;;;6.07;2.90;;;;;;;;;;6205476;28;20257;-67
2022/05/13 02:11:45;;;;;;;5.77;2.87;;;;;;;;;;6205898;28;20252;-66
2022/05/13 02:15:08;;;;;;;6.37;3.00;;;;;;;;;;6207079;28;20240;-67
2022/05/13 02:18:29;;;;;;;8.60;2.33;;;;;;;;;;6199541;28;20228;-66
2022/05/13 02:21:49;;;;;;;9.83;3.47;;;;;;;;;;6198765;28;20260;-68
2022/05/13 02:25:10;;;;;;;4.93;2.53;;;;;;;;;;6199027;28;20264;-67
2022/05/13 02:28:31;;;;;;;6.20;2.90;;;;;;;;;;6200560;28;20499;-67
2022/05/13 02:31:53;;;;;;;5.93;3.47;;;;;;;;;;6193006;28;20320;-67
2022/05/13 02:35:14;;;;;;;8.90;3.60;;;;;;;;;;6194546;28;20580;-67
2022/05/13 02:38:34;;;;;;;8.57;4.03;;;;;;;;;;6198890;28;20496;-67
2022/05/13 02:41:55;;;;;;;6.27;2.70;;;;;;;;;;6195817;28;20550;-67
2022/05/13 02:45:16;;;;;;;9.57;2.90;;;;;;;;;;6199953;28;20237;-68
2022/05/13 02:48:38;;;;;;;8.40;4.00;;;;;;;;;;6206216;28;20320;-67
2022/05/13 02:51:58;;;;;;;7.70;2.90;;;;;;;;;;6209363;28;20642;-67
2022/05/13 02:55:19;;;;;;;5.83;3.50;;;;;;;;;;6207568;28;20225;-67
2022/05/13 02:58:40;;;;;;;9.73;3.37;;;;;;;;;;6206854;28;20229;-67
2022/05/13 03:02:01;;;;;;;7.07;3.60;;;;;;;;;;6186057;28;20225;-68
2022/05/13 03:05:23;;;;;;;7.07;3.47;;;;;;;;;;6201621;28;20237;-67
2022/05/13 03:08:44;;;;;;;5.70;3.67;;;;;;;;;;6208766;28;20229;-67
2022/05/13 03:12:06;;;;;;;7.83;3.37;;;;;;;;;;6198655;28;20233;-67
2022/05/13 03:15:27;;;;;;;5.90;4.03;;;;;;;;;;6202494;28;20619;-66
2022/05/13 03:18:47;;;;;;;4.63;2.77;;;;;;;;;;6208960;28;20241;-66
2022/05/13 03:22:09;;;;;;;7.90;4.27;;;;;;;;;;6205287;28;20280;-67
2022/05/13 03:25:30;;;;;;;5.73;3.03;;;;;;;;;;6205563;28;20618;-67
2022/05/13 03:28:50;;;;;;;6.60;3.70;;;;;;;;;;6208203;28;20491;-67
2022/05/13 03:32:11;;;;;;;9.33;3.43;;;;;;;;;;6203984;28;20688;-66
2022/05/13 03:35:32;;;;;;;7.93;3.33;;;;;;;;;;6203623;28;20308;-68
2022/05/13 03:38:54;;;;;;;8.10;3.70;;;;;;;;;;6204442;28;20236;-67
2022/05/13 03:42:14;;;;;;;5.63;3.57;;;;;;;;;;6200560;28;20232;-67
2022/05/13 03:45:36;;;;;;;7.03;3.73;;;;;;;;;;6209870;28;20229;-67
2022/05/13 03:48:56;;;;;;;6.17;3.30;;;;;;;;;;6205777;28;20241;-68
2022/05/13 03:52:17;;;;;;;9.07;4.40;;;;;;;;;;6203950;28;20244;-67
2022/05/13 03:55:39;;;;;;;8.50;3.60;;;;;;;;;;6204798;28;20233;-66
2022/05/13 03:59:00;;;;;;;5.10;3.40;;;;;;;;;;6203831;28;20579;-67
2022/05/13 04:02:21;;;;;;;6.30;4.13;;;;;;;;;;6208498;28;20316;-68
2022/05/13 04:09:19;;;;;;;8.13;4.37;;;;;;;;;;6209688;28;20224;-68
2022/05/13 04:16:19;;;;;;;5.60;3.90;;;;;;;;;;6207158;28;20237;-67
2022/05/13 04:19:39;;;;;;;4.63;3.30;;;;;;;;;;6208232;28;20232;-67
2022/05/13 04:23:00;;;;;;;8.33;4.13;;;;;;;;;;6209432;28;20533;-67
2022/05/13 04:26:21;;;;;;;8.97;4.30;;;;;;;;;;6206713;28;20233;-68
2022/05/13 04:29:43;;;;;;;5.30;3.27;;;;;;;;;;6210738;28;20257;-66
2022/05/13 04:33:03;;;;;;;5.67;3.80;;;;;;;;;;6208552;28;20237;-68
2022/05/13 04:36:24;;;;;;;4.13;3.13;;;;;;;;;;6212989;28;20233;-66
2022/05/13 04:39:52;;;;;;;7.20;4.17;;;;;;;;;;6201056;28;20230;-68
2022/05/13 04:43:13;;;;;;;9.10;3.53;;;;;;;;;;6197583;28;20586;-67
2022/05/13 04:46:35;;;;;;;6.50;3.60;;;;;;;;;;6202136;28;20226;-67
2022/05/13 04:49:56;;;;;;;8.60;3.27;;;;;;;;;;6204397;28;20225;-67
2022/05/13 04:53:18;;;;;;;6.30;2.83;;;;;;;;;;6200118;28;20229;-67
2022/05/13 04:56:39;;;;;;;4.07;2.80;;;;;;;;;;6200764;28;20253;-68
2022/05/13 05:00:00;;;;;;;7.37;3.23;;;;;;;;;;6178156;28;20229;-68
2022/05/13 05:03:22;;;;;;;8.07;3.30;;;;;;;;;;6205473;28;20233;-67
2022/05/13 05:06:43;;;;;;;5.17;3.50;;;;;;;;;;6201320;28;20631;-67
2022/05/13 05:10:03;;;;;;;9.17;4.27;;;;;;;;;;6201129;28;20257;-67
2022/05/13 05:13:25;;;;;;;7.27;3.73;;;;;;;;;;6202066;28;20229;-68
2022/05/13 05:16:45;;;;;;;5.40;3.73;;;;;;;;;;6198822;28;20245;-68
2022/05/13 05:20:08;;;;;;;6.10;3.10;;;;;;;;;;6203156;28;20248;-69
2022/05/13 05:23:30;;;;;;;3.60;2.87;;;;;;;;;;6201279;28;20228;-67
2022/05/13 05:26:50;;;;;;;6.10;3.13;;;;;;;;;;6200553;28;20630;-67
2022/05/13 05:30:12;;;;;;;5.57;3.37;;;;;;;;;;6200662;28;20232;-67
2022/05/13 05:33:32;;;;;;;6.33;3.43;;;;;;;;;;6192908;28;20261;-67
2022/05/13 05:36:54;;;;;;;10.47;3.50;;;;;;;;;;6196197;28;20234;-67
2022/05/13 05:40:15;;;;;;;8.57;3.33;;;;;;;;;;6197808;28;21802;-66
2022/05/13 05:43:36;;;;;;;7.90;3.07;;;;;;;;;;6205132;28;20233;-66
2022/05/13 05:46:58;;;;;;;4.77;3.27;;;;;;;;;;6201935;28;20258;-67
2022/05/13 05:50:19;;;;;;;6.63;3.30;;;;;;;;;;6201774;28;20242;-68
2022/05/13 05:57:19;;;;;;;7.67;2.80;;;;;;;;;;6193189;28;20244;-67
2022/05/13 06:00:42;;;;;;;7.07;3.10;;;;;;;;;;6195008;28;20244;-67
2022/05/13 06:04:03;;;;;;;5.13;3.10;;;;;;;;;;6193952;28;20230;-67
2022/05/13 06:07:26;;;;;;;5.07;2.80;;;;;;;;;;6201978;28;20237;-66
2022/05/13 06:10:48;;;;;;;6.47;4.03;;;;;;;;;;6191676;28;21079;-67
2022/05/13 06:14:09;;;;;;;12.23;4.87;;;;;;;;;;6185112;28;20511;-68
2022/05/13 06:17:30;;;;;;;7.33;3.70;;;;;;;;;;6194673;28;21269;-65
2022/05/13 06:20:50;;;;;;;6.27;4.10;;;;;;;;;;6191440;28;20226;-65
2022/05/13 06:24:11;;;;;;;9.13;3.27;;;;;;;;;;6193085;28;20230;-64
2022/05/13 06:27:33;;;;;;;7.23;4.37;;;;;;;;;;6193605;28;20532;-62
2022/05/13 06:30:54;;;;;;;11.60;3.83;;;;;;;;;;6193530;28;20238;-64
2022/05/13 06:34:16;;;;;;;9.53;4.27;;;;;;;;;;6197232;28;20225;-64
2022/05/13 06:37:37;;;;;;;6.90;2.93;;;;;;;;;;6196839;28;20320;-65
2022/05/13 06:40:57;;;;;;;4.93;3.37;;;;;;;;;;6200412;28;20239;-65
2022/05/13 06:44:19;;;;;;;6.17;3.90;;;;;;;;;;6200320;28;20229;-63
2022/05/13 06:47:40;;;;;;;10.67;3.83;;;;;;;;;;6199209;28;20311;-65
2022/05/13 06:51:02;;;;;;;6.73;3.47;;;;;;;;;;6196573;28;20324;-64
2022/05/13 06:54:23;;;;;;;8.67;3.97;;;;;;;;;;6192829;28;20626;-65
2022/05/13 06:57:43;;;;;;;7.73;3.80;;;;;;;;;;6193732;28;20256;-64
2022/05/13 07:01:05;;;;;;;9.40;4.10;;;;;;;;;;6193335;28;20236;-65
2022/05/13 07:04:26;;;;;;;8.43;4.20;;;;;;;;;;6194129;28;20224;-67
2022/05/13 07:07:46;;;;;;;7.63;4.07;;;;;;;;;;6198769;28;20524;-67
2022/05/13 07:11:07;;;;;;;5.90;3.77;;;;;;;;;;6204244;28;20238;-67
2022/05/13 07:14:27;;;;;;;5.97;4.23;;;;;;;;;;6208774;28;20237;-67
2022/05/13 07:17:49;;;;;;;10.07;3.77;;;;;;;;;;6201142;28;20604;-68
2022/05/13 07:21:09;;;;;;;8.53;4.47;;;;;;;;;;6204080;28;20237;-67
2022/05/13 07:24:30;;;;;;;12.50;5.00;;;;;;;;;;6206736;28;20768;-67
2022/05/13 07:27:51;;;;;;;7.40;4.37;;;;;;;;;;6199618;28;20620;-67
2022/05/13 07:31:11;;;;;;;6.80;3.47;;;;;;;;;;6205412;28;20312;-67
2022/05/13 07:34:33;;;;;;;5.77;4.73;;;;;;;;;;6202974;28;20248;-68
2022/05/13 07:37:54;;;;;;;8.17;4.83;;;;;;;;;;6202339;28;20233;-68
2022/05/13 07:41:16;;;;;;;9.67;4.23;;;;;;;;;;6202419;28;20229;-67
2022/05/13 07:44:37;;;;;;;8.80;4.80;;;;;;;;;;6201282;28;21121;-68
2022/05/13 07:47:57;;;;;;;10.27;4.97;;;;;;;;;;6197997;28;20233;-67
2022/05/13 07:51:19;;;;;;;9.93;5.53;;;;;;;;;;6203117;28;20229;-65
2022/05/13 07:54:41;;;;;;;6.97;5.03;;;;;;;;;;6205865;28;20263;-65
2022/05/13 07:58:02;;;;;;;11.57;5.80;;;;;;;;;;6202378;28;20233;-65
2022/05/13 08:01:22;;;;;;;8.80;4.90;;;;;;;;;;6203585;28;20225;-64
2022/05/13 08:04:43;;;;;;;8.03;4.70;;;;;;;;;;6204870;28;20229;-66
2022/05/13 08:08:06;;;;;;;15.50;4.63;;;;;;;;;;6200897;28;20225;-67
2022/05/13 08:11:28;;;;;;;6.40;4.83;;;;;;;;;;6198834;28;20229;-67
2022/05/13 08:14:49;;;;;;;9.13;4.57;;;;;;;;;;6203363;28;20237;-67
2022/05/13 08:18:09;;;;;;;9.70;5.33;;;;;;;;;;6200851;28;20519;-67
2022/05/13 08:21:30;;;;;;;6.70;4.83;;;;;;;;;;6200257;28;20225;-67
2022/05/13 08:24:52;;;;;;;8.93;5.67;;;;;;;;;;6205945;28;20537;-69
2022/05/13 08:28:13;;;;;;;9.63;5.13;;;;;;;;;;6194504;28;20240;-68
2022/05/13 08:31:34;;;;;;;12.00;6.20;;;;;;;;;;6204856;28;20229;-69
2022/05/13 08:34:54;;;;;;;10.43;6.33;;;;;;;;;;6204081;28;20229;-66
2022/05/13 08:38:15;;;;;;;12.73;5.57;;;;;;;;;;6191014;28;20261;-68
2022/05/13 08:41:47;;;;;;;6.93;4.83;;;;;;;;;;6198053;28;20706;-68
2022/05/13 08:45:10;;;;;;;13.33;6.13;;;;;;;;;;6193793;28;20240;-68
2022/05/13 08:48:32;;;;;;;10.37;5.40;;;;;;;;;;6195153;28;20619;-68
2022/05/13 08:51:58;;;;;;;10.30;5.13;;;;;;;;;;6192253;28;21926;-67
2022/05/13 08:55:20;;;;;;;10.17;5.73;;;;;;;;;;6195426;28;20229;-69
2022/05/13 08:58:43;;;;;;;12.50;7.23;;;;;;;;;;6197753;28;20225;-68
2022/05/13 09:02:07;;;;;;;11.40;5.27;;;;;;;;;;6191432;28;20237;-69
2022/05/13 09:05:29;;;;;;;11.40;6.80;;;;;;;;;;6183108;28;20352;-68
2022/05/13 09:08:49;;;;;;;13.07;6.33;;;;;;;;;;6186969;28;25980;-68
2022/05/13 09:12:17;;;;;;;9.43;5.50;;;;;;;;;;6190831;28;20229;-68
2022/05/13 09:15:42;;;;;;;18.20;7.27;;;;;;;;;;6196454;28;20221;-69
2022/05/13 09:19:04;;;;;;;13.70;5.00;;;;;;;;;;6198235;28;20236;-68
2022/05/13 09:22:32;;;;;;;9.33;4.93;;;;;;;;;;6201381;28;20236;-67
2022/05/13 09:26:13;;;;;;;9.23;5.60;;;;;;;;;;6201576;28;20795;-67
2022/05/13 09:29:38;;;;;;;11.33;5.67;;;;;;;;;;6206294;28;20315;-68
2022/05/13 09:33:17;;;;;;;17.60;6.07;;;;;;;;;;6196001;28;20622;-66
2022/05/13 09:36:38;;;;;;;7.93;4.90;;;;;;;;;;6193949;28;20232;-68
2022/05/13 09:40:06;;;;;;;10.27;5.33;;;;;;;;;;6199226;28;20250;-68
2022/05/13 09:43:36;;;;;;;9.37;5.70;;;;;;;;;;6196413;28;20248;-67
2022/05/13 09:47:08;;;;;;;11.90;6.20;;;;;;;;;;6199080;28;20233;-68
2022/05/13 09:50:32;;;;;;;8.40;5.40;;;;;;;;;;6192700;28;20229;-68
2022/05/13 09:54:00;;;;;;;10.93;5.00;;;;;;;;;;6195478;28;20319;-67
2022/05/13 09:57:23;;;;;;;12.40;6.27;;;;;;;;;;6171699;28;20678;-67
2022/05/13 10:00:45;;;;;;;9.40;5.17;;;;;;;;;;6193059;28;20611;-65
2022/05/13 10:04:10;;;;;;;12.40;5.43;;;;;;;;;;6169770;28;20233;-64
2022/05/13 10:07:32;;;;;;;10.10;4.40;;;;;;;;;;6186255;28;20237;-64
2022/05/13 10:14:40;;;;;;;7.13;4.70;;;;;;;;;;6192367;28;20221;-65
2022/05/13 10:18:03;;;;;;;9.40;5.23;;;;;;;;;;6199260;28;20245;-64
2022/05/13 10:21:25;;;;;;;8.40;4.87;;;;;;;;;;6196966;28;20261;-64
2022/05/13 10:24:50;;;;;;;6.83;4.50;;;;;;;;;;6186737;28;21087;-63
2022/05/13 10:28:12;;;;;;;10.73;5.13;;;;;;;;;;6185280;28;20267;-63
2022/05/13 10:31:36;;;;;;;11.00;6.20;;;;;;;;;;6185872;28;20237;-64
2022/05/13 10:35:00;;;;;;;11.87;5.70;;;;;;;;;;6192514;28;20312;-67
2022/05/13 10:38:24;;;;;;;5.13;2.90;;;;;;;;;;6191141;28;20586;-67
2022/05/13 10:41:46;;;;;;;4.73;3.07;;;;;;;;;;6202893;28;20229;-68
2022/05/13 10:45:09;;;;;;;5.57;3.57;;;;;;;;;;6201560;28;20230;-68
2022/05/13 10:48:30;;;;;;;6.27;3.33;;;;;;;;;;6206835;28;20686;-67
2022/05/13 10:51:54;;;;;;;6.53;3.53;;;;;;;;;;6201656;28;20889;-66
2022/05/13 10:55:18;;;;;;;7.50;4.17;;;;;;;;;;6199660;28;20495;-69
2022/05/13 10:58:45;;;;;;;5.30;3.40;;;;;;;;;;6199238;28;20988;-68
2022/05/13 11:02:14;;;;;;;4.07;2.73;;;;;;;;;;6188634;28;20233;-68
2022/05/13 11:05:36;;;;;;;7.50;3.33;;;;;;;;;;6186609;28;20264;-68
2022/05/13 11:09:01;;;;;;;7.30;2.80;;;;;;;;;;6184762;28;20229;-68
2022/05/13 11:12:28;;;;;;;10.40;4.30;;;;;;;;;;6188773;28;20241;-67
2022/05/13 11:15:52;;;;;;;6.40;3.23;;;;;;;;;;6185825;28;20257;-67
2022/05/13 11:19:20;;;;;;;8.93;3.33;;;;;;;;;;6193977;28;20253;-68
2022/05/13 11:22:44;;;;;;;6.40;3.80;;;;;;;;;;6195589;28;20598;-67
2022/05/13 11:26:08;;;;;;;5.90;3.43;;;;;;;;;;6189337;28;20229;-68
2022/05/13 11:29:31;;;;;;;6.87;3.53;;;;;;;;;;6196743;28;20241;-69
2022/05/13 11:32:56;;;;;;;5.97;4.97;;;;;;;;;;6179632;28;20265;-68
2022/05/13 11:36:24;;;;;;;5.53;3.07;;;;;;;;;;6193672;28;20241;-64
2022/05/13 11:39:52;;;;;;;3.70;2.70;;;;;;;;;;6199171;28;20232;-64
2022/05/13 11:43:22;;;;;;;3.75;2.25;;;;;;;;;;6201653;28;20611;-65
2022/05/13 11:46:48;;;;;;;5.40;3.28;;;;;;;;;;6199092;28;20221;-66
2022/05/13 11:50:11;;;;;;;4.85;2.40;;;;;;;;;;6201826;28;20261;-67
2022/05/13 11:53:49;;;;;;;5.80;3.17;;;;;;;;;;6196627;28;20256;-68
2022/05/13 11:57:21;;;;;;;7.87;4.03;;;;;;;;;;6199474;28;20236;-68
2022/05/13 12:00:42;;;;;;;5.57;2.90;;;;;;;;;;6198436;28;20230;-69
2022/05/13 12:04:19;;;;;;;5.67;2.90;;;;;;;;;;6194505;28;21030;-68
2022/05/13 12:07:50;;;;;;;6.30;3.20;;;;;;;;;;6196078;28;20225;-69
2022/05/13 12:11:17;;;;;;;3.10;2.67;;;;;;;;;;6195717;28;20236;-69
2022/05/13 12:14:44;;;;;;;5.33;2.93;;;;;;;;;;6180992;28;20233;-68
2022/05/13 12:18:09;;;;;;;5.50;3.20;;;;;;;;;;6190613;28;20585;-68
2022/05/13 12:21:34;;;;;;;6.67;3.67;;;;;;;;;;6191878;28;20230;-68
2022/05/13 12:24:58;;;;;;;4.88;3.47;;;;;;;;;;6196499;28;20243;-69
2022/05/13 12:28:24;;;;;;;4.35;3.50;;;;;;;;;;6197597;28;20996;-65
2022/05/13 12:31:47;;;;;;;5.30;2.70;;;;;;;;;;6196781;28;20237;-68
2022/05/13 12:39:04;;;;;;;4.57;2.30;;;;;;;;;;6194444;28;20224;-66
2022/05/13 12:42:39;;;;;;;5.82;2.28;;;;;;;;;;6200379;28;20502;-66
2022/05/13 12:46:13;;;;;;;3.30;1.80;;;;;;;;;;6201845;28;20502;-64
2022/05/13 12:49:48;;;;;;;4.38;3.03;;;;;;;;;;6192662;28;20228;-66
2022/05/13 12:53:31;;;;;;;3.88;2.08;;;;;;;;;;6199301;28;20244;-66
2022/05/13 12:56:54;;;;;;;5.53;2.83;;;;;;;;;;6198895;28;20241;-66
2022/05/13 13:00:19;;;;;;;5.13;3.03;;;;;;;;;;6197157;28;20233;-67
2022/05/13 13:03:41;;;;;;;5.88;3.08;;;;;;;;;;6200443;28;20233;-67
2022/05/13 13:07:06;;;;;;;4.50;2.20;;;;;;;;;;6195479;28;20256;-67
2022/05/13 13:10:27;;;;;;;5.55;2.78;;;;;;;;;;6195377;28;20626;-67
2022/05/13 13:13:50;;;;;;;5.68;2.53;;;;;;;;;;6196492;28;20334;-67
2022/05/13 13:17:19;;;;;;;5.95;2.22;;;;;;;;;;6202635;28;20228;-67
2022/05/13 13:20:49;;;;;;;6.45;3.22;;;;;;;;;;6210227;28;20314;-66
2022/05/13 13:24:14;;;;;;;3.83;2.42;;;;;;;;;;6205077;28;20229;-66
2022/05/13 13:27:34;;;;;;;3.67;1.95;;;;;;;;;;6198606;28;20626;-66
2022/05/13 13:30:56;;;;;;;5.50;2.63;;;;;;;;;;6192102;28;20228;-69
2022/05/13 13:34:26;;;;;;;5.28;3.03;;;;;;;;;;6203386;28;20233;-68
2022/05/13 13:37:47;;;;;;;6.43;2.97;;;;;;;;;;6197215;28;20265;-67
2022/05/13 13:41:08;;;;;;;6.15;2.70;;;;;;;;;;6202066;28;20237;-66
2022/05/13 13:44:28;;;;;;;4.60;2.05;;;;;;;;;;6199302;28;20636;-68
2022/05/13 13:47:50;;;;;;;3.08;2.05;;;;;;;;;;6209795;28;20229;-67
2022/05/13 13:51:17;;;;;;;2.55;1.52;;;;;;;;;;6200897;28;20230;-66
2022/05/13 13:54:39;;;;;;;3.92;2.28;;;;;;;;;;6196920;28;20224;-67
2022/05/13 13:58:20;;;;;;;4.40;2.40;;;;;;;;;;6193111;28;20446;-67
2022/05/13 14:01:45;;;;;;;5.75;2.42;;;;;;;;;;6195180;28;20233;-67
2022/05/13 14:05:07;;;;;;;5.57;2.30;;;;;;;;;;6200272;28;20229;-67
2022/05/13 14:08:30;;;;;;;4.40;1.90;;;;;;;;;;6204970;28;20241;-69
2022/05/13 14:11:52;;;;;;;7.30;2.22;;;;;;;;;;6199463;28;20591;-69
2022/05/13 14:15:17;;;;;;;5.07;2.67;;;;;;;;;;6200129;28;20229;-69
2022/05/13 14:18:38;;;;;;;8.95;2.95;;;;;;;;;;6200879;28;20496;-67
2022/05/13 14:22:01;;;;;;;4.90;2.35;;;;;;;;;;6208804;28;20233;-67
2022/05/13 14:25:32;;;;;;;5.28;2.38;;;;;;;;;;6202580;28;20558;-65
2022/05/13 14:28:53;;;;;;;3.83;1.95;;;;;;;;;;6195746;28;20848;-68
2022/05/13 14:32:15;;;;;;;3.92;2.08;;;;;;;;;;6188780;28;20242;-68
2022/05/13 14:35:36;;;;;;;5.50;2.83;;;;;;;;;;6189273;28;20229;-68
2022/05/13 14:42:42;;;;;;;5.40;1.85;;;;;;;;;;6189070;28;20804;-73
2022/05/13 14:46:10;;;;;;;4.00;2.20;;;;;;;;;;6191320;28;20573;-72
2022/05/13 14:49:31;;;;;;;3.80;1.60;;;;;;;;;;6191362;28;20241;-72
2022/05/13 14:52:54;;;;;;;4.78;1.70;;;;;;;;;;6190096;28;20392;-72
2022/05/13 14:56:15;;;;;;;4.32;1.92;;;;;;;;;;6187301;28;20288;-71
2022/05/13 14:59:39;;;;;;;5.80;1.80;;;;;;;;;;6193798;28;20225;-72
2022/05/13 15:03:02;;;;;;;3.72;1.65;;;;;;;;;;6208008;28;20557;-71
2022/05/13 15:06:34;;;;;;;4.85;2.05;;;;;;;;;;6197279;28;20233;-75
2022/05/13 15:09:55;;;;;;;5.38;1.75;;;;;;;;;;6189356;28;20625;-73
2022/05/13 15:13:15;;;;;;;7.57;1.95;;;;;;;;;;6192479;28;20225;-72
2022/05/13 15:16:39;;;;;;;5.53;2.35;;;;;;;;;;6192296;28;20226;-71
2022/05/13 15:19:59;;;;;;;6.57;1.90;;;;;;;;;;6204894;28;20607;-72
2022/05/13 15:23:20;;;;;;;5.93;2.33;;;;;;;;;;6211778;28;20228;-69
2022/05/13 15:26:41;;;;;;;5.70;2.03;;;;;;;;;;6214199;28;20221;-70
2022/05/13 15:30:01;;;;;;;4.40;2.05;;;;;;;;;;6183083;28;20233;-69
2022/05/13 15:33:24;;;;;;;8.43;2.58;;;;;;;;;;6197176;28;20240;-70
2022/05/13 15:36:44;;;;;;;6.75;2.47;;;;;;;;;;6202902;28;20232;-69
2022/05/13 15:40:06;;;;;;;4.63;1.73;;;;;;;;;;6208976;28;20229;-70
2022/05/13 15:43:27;;;;;;;5.97;2.20;;;;;;;;;;6205969;28;20233;-70
2022/05/13 15:46:48;;;;;;;3.43;1.77;;;;;;;;;;6203701;28;20245;-70
2022/05/13 15:53:45;;;;;;;3.83;1.83;;;;;;;;;;6205634;28;20229;-70
2022/05/13 15:57:08;;;;;;;8.75;2.97;;;;;;;;;;6196799;28;20236;-70
2022/05/13 16:00:29;;;;;;;4.97;2.67;;;;;;;;;;6229496;28;20222;-69
2022/05/13 16:03:50;;;;;;;3.50;2.30;;;;;;;;;;6207255;28;20596;-71
2022/05/13 16:07:11;;;;;;;4.93;1.90;;;;;;;;;;6204153;28;20325;-70
2022/05/13 16:10:32;;;;;;;5.72;1.98;;;;;;;;;;6205109;28;20315;-70
2022/05/13 16:13:54;;;;;;;4.80;2.20;;;;;;;;;;6210824;28;20225;-71
2022/05/13 16:17:14;;;;;;;5.30;2.38;;;;;;;;;;6203039;28;20241;-71
2022/05/13 16:20:35;;;;;;;7.63;2.33;;;;;;;;;;6204066;28;20237;-71
2022/05/13 16:23:57;;;;;;;5.05;2.17;;;;;;;;;;6204156;28;20232;-71
2022/05/13 16:27:21;;;;;;;5.93;2.60;;;;;;;;;;6200668;28;20229;-71
2022/05/13 16:30:41;;;;;;;6.47;2.47;;;;;;;;;;6203070;28;20221;-71
2022/05/13 16:34:02;;;;;;;8.00;3.03;;;;;;;;;;6195488;28;20307;-69
2022/05/13 16:41:04;;;;;;;8.73;2.97;;;;;;;;;;6200698;28;20241;-71
2022/05/13 16:44:24;;;;;;;10.30;4.13;;;;;;;;;;6200656;28;20233;-71
2022/05/13 16:47:45;;;;;;;5.00;2.80;;;;;;;;;;6196026;28;20256;-71
2022/05/13 16:51:07;;;;;;;9.73;3.33;;;;;;;;;;6201048;28;20241;-71
2022/05/13 16:54:28;;;;;;;5.10;2.77;;;;;;;;;;6201708;28;21271;-70
2022/05/13 16:57:50;;;;;;;6.07;3.00;;;;;;;;;;6197059;28;20225;-71
2022/05/13 17:01:11;;;;;;;8.93;3.13;;;;;;;;;;6203939;28;20229;-72
2022/05/13 17:04:31;;;;;;;7.97;3.73;;;;;;;;;;6200440;28;20245;-71
2022/05/13 17:07:52;;;;;;;7.13;3.33;;;;;;;;;;6198451;28;20252;-71
2022/05/13 17:22:02;;;;;;;8.05;2.60;;;;;;;;;;6195857;28;20220;-68
2022/05/13 17:25:22;;;;;;;10.63;3.70;;;;;;;;;;6194730;28;20286;-68
2022/05/13 17:28:43;;;;;;;7.53;3.60;;;;;;;;;;6199599;28;21955;-67
2022/05/13 17:32:05;;;;;;;9.83;3.83;;;;;;;;;;6193523;28;20622;-69
2022/05/13 17:35:28;;;;;;;7.03;3.03;;;;;;;;;;6200695;28;20229;-70
2022/05/13 17:38:48;;;;;;;8.87;3.73;;;;;;;;;;6196687;28;20631;-66
2022/05/13 17:42:10;;;;;;;9.63;3.60;;;;;;;;;;6195408;28;20264;-68
2022/05/13 17:45:30;;;;;;;12.30;3.33;;;;;;;;;;6201394;28;20249;-70
2022/05/13 17:48:52;;;;;;;11.07;4.60;;;;;;;;;;6188214;28;20233;-67
2022/05/13 17:52:13;;;;;;;7.70;3.50;;;;;;;;;;6194208;28;20324;-69
2022/05/13 17:55:34;;;;;;;9.97;3.67;;;;;;;;;;6196808;28;20248;-68
2022/05/13 17:58:54;;;;;;;7.20;3.47;;;;;;;;;;6199487;28;20238;-69
2022/05/13 18:02:14;;;;;;;12.57;6.33;;;;;;;;;;6195872;28;20526;-68
2022/05/13 18:05:37;;;;;;;6.80;3.97;;;;;;;;;;6204319;28;20233;-69
2022/05/13 18:08:58;;;;;;;10.33;3.47;;;;;;;;;;6207339;28;20237;-73
2022/05/13 18:12:19;;;;;;;6.43;3.77;;;;;;;;;;6203065;28;20221;-74
2022/05/13 18:15:40;;;;;;;8.10;3.07;;;;;;;;;;6196538;28;20492;-66
2022/05/13 18:19:00;;;;;;;7.60;3.97;;;;;;;;;;6201613;28;20220;-70
2022/05/13 18:22:23;;;;;;;7.00;3.73;;;;;;;;;;6211461;28;20233;-72
2022/05/13 18:25:44;;;;;;;12.23;7.63;;;;;;;;;;6214325;28;20256;-70
2022/05/13 18:29:05;;;;;;;12.07;5.97;;;;;;;;;;6206007;28;20238;-72
2022/05/13 18:32:25;;;;;;;11.57;5.17;;;;;;;;;;6206566;28;20491;-71
2022/05/13 18:35:46;;;;;;;10.23;3.70;;;;;;;;;;6208982;28;20614;-69
2022/05/13 18:39:08;;;;;;;7.27;3.07;;;;;;;;;;6208005;28;20591;-68
2022/05/13 18:46:13;;;;;;;10.73;4.60;;;;;;;;;;6191749;28;20237;-68
2022/05/13 18:49:34;;;;;;;11.27;7.23;;;;;;;;;;6208652;28;20323;-68
2022/05/13 18:52:54;;;;;;;6.90;4.27;;;;;;;;;;6208568;28;20237;-69
2022/05/13 18:56:18;;;;;;;8.87;4.30;;;;;;;;;;6207812;28;20225;-67
2022/05/13 18:59:38;;;;;;;11.10;4.93;;;;;;;;;;6201739;28;20228;-69
2022/05/13 19:02:59;;;;;;;11.63;4.67;;;;;;;;;;6209010;28;20233;-70
2022/05/13 19:06:20;;;;;;;7.10;3.60;;;;;;;;;;6200841;28;20655;-69
2022/05/13 19:09:40;;;;;;;8.50;3.97;;;;;;;;;;6201676;28;20234;-69
2022/05/13 19:13:02;;;;;;;10.23;4.87;;;;;;;;;;6205442;28;20229;-69
2022/05/13 19:16:24;;;;;;;9.00;3.87;;;;;;;;;;6206422;28;20233;-70
2022/05/13 19:19:46;;;;;;;9.20;4.20;;;;;;;;;;6204450;28;20323;-72
2022/05/13 19:23:07;;;;;;;9.87;3.73;;;;;;;;;;6207197;28;20414;-71
2022/05/13 19:26:30;;;;;;;13.23;5.70;;;;;;;;;;6203364;28;20237;-70
2022/05/13 19:29:52;;;;;;;7.53;4.00;;;;;;;;;;6197617;28;20236;-71
2022/05/13 19:33:14;;;;;;;10.47;4.20;;;;;;;;;;6207174;28;20694;-70
2022/05/13 19:36:35;;;;;;;7.93;3.97;;;;;;;;;;6200387;28;20257;-69
2022/05/13 19:39:56;;;;;;;9.83;5.70;;;;;;;;;;6204244;28;20237;-70
2022/05/13 19:43:18;;;;;;;7.13;3.60;;;;;;;;;;6202694;28;20248;-74
2022/05/13 19:46:39;;;;;;;11.03;4.23;;;;;;;;;;6193349;28;20311;-67
2022/05/13 19:50:00;;;;;;;7.93;4.37;;;;;;;;;;6204823;28;20237;-68
2022/05/13 19:53:22;;;;;;;14.17;5.80;;;;;;;;;;6202515;28;20245;-68
2022/05/13 19:56:42;;;;;;;12.80;5.30;;;;;;;;;;6206338;28;20229;-68
2022/05/13 20:00:05;;;;;;;12.57;4.70;;;;;;;;;;6202113;28;20312;-68
2022/05/13 20:03:28;;;;;;;11.67;5.27;;;;;;;;;;6200497;28;20324;-68
2022/05/13 20:10:43;;;;;;;7.33;3.63;;;;;;;;;;6196619;28;20253;-68
2022/05/13 20:14:04;;;;;;;9.20;4.63;;;;;;;;;;6203661;28;20234;-71
2022/05/13 20:17:25;;;;;;;8.93;3.77;;;;;;;;;;6205382;28;20244;-69
2022/05/13 20:24:25;;;;;;;11.83;5.03;;;;;;;;;;6195027;28;20265;-66
2022/05/13 20:27:46;;;;;;;11.90;4.70;;;;;;;;;;6186957;28;20237;-67
2022/05/13 20:31:07;;;;;;;9.03;4.83;;;;;;;;;;6177835;28;20888;-65
2022/05/13 20:34:27;;;;;;;17.03;4.60;;;;;;;;;;6201127;28;20253;-64
2022/05/13 20:37:51;;;;;;;10.70;4.33;;;;;;;;;;6180877;28;20233;-66
2022/05/13 20:41:12;;;;;;;7.97;3.70;;;;;;;;;;6174665;28;20221;-65
2022/05/13 20:44:33;;;;;;;12.07;4.97;;;;;;;;;;6181049;28;20285;-63
2022/05/13 20:47:53;;;;;;;11.17;4.13;;;;;;;;;;6185083;28;20229;-65
2022/05/13 20:51:14;;;;;;;11.90;4.73;;;;;;;;;;6182465;28;20232;-65
2022/05/13 20:54:36;;;;;;;14.27;4.60;;;;;;;;;;6179100;28;20249;-65
2022/05/13 20:57:57;;;;;;;10.07;4.60;;;;;;;;;;6176072;28;20238;-63
2022/05/13 21:01:18;;;;;;;12.70;4.53;;;;;;;;;;6174402;28;20233;-65
2022/05/13 21:04:47;;;;;;;8.70;4.23;;;;;;;;;;6179975;28;20229;-64
2022/05/13 21:08:09;;;;;;;13.17;5.07;;;;;;;;;;6159902;28;20233;-68